Date,TemperatureHighF,TemperatureAvgF,TemperatureLowF,DewpointHighF,DewpointAvgF,DewpointLowF,HumidityHigh,HumidityAvg,HumidityLow,PressureMaxIn,PressureMinIn,WindSpeedMaxMPH,WindSpeedAvgMPH,GustSpeedMaxMPH,PrecipitationSumIn
2013-2-1,32,28,23,22,12,7,76,53,39,30.27,29.84,19,5,27,0.00
2013-2-2,31,25,18,23,11,7,91,56,37,30.33,30.06,9,2,14,0.00
2013-2-3,32,26,20,26,22,18,95,85,69,30.05,29.79,6,1,11,0.02
2013-2-4,30,26,22,25,15,12,93,64,48,30.02,29.84,15,4,23,0.01
2013-2-5,35,32,27,33,30,24,96,93,85,29.97,29.88,3,0,5,0.01
2013-2-6,39,34,25,32,26,20,96,76,54,30.36,29.91,17,3,18,0.02
2013-2-7,39,30,21,35,22,14,86,71,58,30.49,30.29,2,0,6,0.00
2013-2-8,43,38,30,42,37,29,97,94,85,30.27,29.60,12,2,19,1.16
2013-2-9,34,29,23,31,21,9,98,74,49,30.34,29.73,18,7,28,0.04
2013-2-10,39,27,12,28,16,9,86,65,34,30.49,30.33,7,1,12,0.06
2013-2-11,55,47,33,54,46,28,98,94,82,30.34,29.64,13,2,22,0.30
2013-2-12,48,42,31,44,30,26,92,63,48,29.97,29.74,17,5,25,0.00
2013-2-13,44,35,25,33,29,23,96,79,56,29.97,29.66,5,0,8,0.00
2013-2-14,47,37,32,37,34,31,98,89,60,30.02,29.70,5,1,9,0.27
2013-2-15,58,42,30,41,35,29,98,79,45,30.04,29.91,7,1,12,0.01
2013-2-16,44,37,32,35,31,21,93,78,58,29.95,29.72,7,1,14,0.00
2013-2-17,32,29,21,20,9,1,62,44,36,30.03,29.67,21,9,30,0.01
2013-2-18,36,27,19,14,8,3,57,47,35,30.27,30.03,15,5,24,0.00
2013-2-19,52,41,28,47,34,14,96,77,53,30.22,29.69,12,3,22,0.19
2013-2-20,39,31,26,30,17,12,70,56,45,30.02,29.76,20,7,26,0.00
2013-2-21,36,30,24,18,15,13,66,56,46,30.27,30.01,24,7,34,0.00
2013-2-22,38,32,23,36,25,16,94,78,66,30.39,30.25,4,0,8,0.00
2013-2-23,46,42,37,46,41,35,98,97,94,30.25,29.77,8,0,14,0.39
2013-2-24,49,40,33,40,34,23,98,80,58,30.00,29.74,18,5,23,0.02
2013-2-25,45,37,29,32,28,23,82,68,53,30.23,30.00,8,2,13,0.00
2013-2-26,45,37,27,40,33,25,97,85,66,30.27,29.79,7,1,14,0.31
2013-2-27,54,47,41,52,44,39,99,89,67,29.81,29.49,17,2,24,0.59
2013-2-28,48,43,37,40,36,30,92,75,58,29.64,29.55,7,2,13,0.01